Time;durP1;ratioP1;P1;durP2;ratioP2;P2;SDS_P1;SDS_P2;PMS_P1;PMS_P2;Temp;Humidity;BMP_temperature;BMP_pressure;BME280_temperature;BME280_humidity;BME280_pressure;Samples;Min_cycle;Max_cycle;Signal;HPM_P1;HPM_P2
2022/12/25 00:04:24;;;;;;;13.83;3.13;;;;;;;4.79;77.91;100446.84;10401002;28;20201;-80
2022/12/25 00:09:46;;;;;;;9.67;2.73;;;;;;;5.43;75.96;100459.59;10390256;28;20225;-80
2022/12/25 00:15:09;;;;;;;12.03;3.23;;;;;;;5.17;76.80;100452.63;10420481;28;20483;-80
2022/12/25 00:20:31;;;;;;;12.23;3.40;;;;;;;5.32;76.45;100449.69;10407236;28;20275;-80
2022/12/25 00:25:53;;;;;;;10.43;3.20;;;;;;;5.69;74.92;100460.09;10391138;28;20198;-80
2022/12/25 00:31:17;;;;;;;8.87;2.77;;;;;;;5.90;74.69;100457.84;10407682;28;20205;-80
2022/12/25 00:36:39;;;;;;;13.10;2.70;;;;;;;6.08;73.62;100457.03;10548856;28;20221;-79
2022/12/25 00:42:19;;;;;;;7.70;2.50;;;;;;;5.65;75.51;100458.19;10568291;28;20221;-81
2022/12/25 00:47:41;;;;;;;7.13;2.10;;;;;;;5.69;75.89;100443.31;10559960;28;20243;-80
2022/12/25 00:53:03;;;;;;;6.73;2.47;;;;;;;5.63;75.80;100447.34;10585970;28;20251;-80
2022/12/25 00:58:27;;;;;;;6.93;2.50;;;;;;;5.37;77.42;100446.81;10561012;28;20686;-80
2022/12/25 01:03:49;;;;;;;9.07;2.10;;;;;;;5.30;77.92;100446.34;10424745;28;20251;-80
2022/12/25 01:14:52;;;;;;;4.00;1.93;;;;;;;5.52;76.58;100455.00;10402712;28;20239;-90
2022/12/25 01:20:16;;;;;;;9.20;2.40;;;;;;;5.35;76.59;100449.09;10353549;28;20522;-90
2022/12/25 01:25:38;;;;;;;10.13;2.80;;;;;;;5.58;76.51;100448.22;10406818;28;20502;-81
2022/12/25 01:31:00;;;;;;;10.53;2.70;;;;;;;6.09;73.96;100441.09;10410269;28;20478;-89
2022/12/25 01:36:24;;;;;;;6.27;2.30;;;;;;;6.03;74.19;100459.06;10408928;28;20281;-80
2022/12/25 01:41:47;;;;;;;7.77;2.10;;;;;;;5.43;77.02;100442.81;10439435;28;20216;-79
2022/12/25 01:47:09;;;;;;;7.77;2.03;;;;;;;5.35;77.47;100451.88;10446844;28;20213;-82
2022/12/25 01:52:31;;;;;;;10.17;2.47;;;;;;;5.27;78.66;100441.34;10468282;28;20192;-81
2022/12/25 01:57:53;;;;;;;6.50;1.80;;;;;;;5.19;79.29;100428.03;10454857;28;20213;-80
2022/12/25 02:03:15;;;;;;;7.53;1.83;;;;;;;5.50;78.07;100420.13;10419240;28;20667;-80
2022/12/25 02:08:38;;;;;;;7.03;1.40;;;;;;;5.37;78.28;100430.03;10412552;28;20488;-81
2022/12/25 02:14:01;;;;;;;5.60;1.70;;;;;;;5.30;78.86;100442.72;10409885;28;20193;-79
2022/12/25 02:19:51;;;;;;;9.17;1.90;;;;;;;5.62;78.03;100440.09;10423040;28;20286;-80
2022/12/25 02:25:32;;;;;;;4.27;1.57;;;;;;;5.53;78.13;100442.69;10394570;28;20189;-80
2022/12/25 02:31:40;;;;;;;4.20;1.50;;;;;;;5.59;78.56;100443.47;10403938;28;20675;-80
2022/12/25 02:37:20;;;;;;;5.43;1.57;;;;;;;5.71;78.37;100452.25;10342302;28;20213;-81
2022/12/25 03:11:31;;;;;;;4.97;0.73;;;;;;;5.99;78.47;100433.69;10411422;28;20242;-80
2022/12/25 03:16:55;;;;;;;6.87;1.27;;;;;;;6.17;78.01;100438.41;10415539;28;20205;-80
2022/12/25 03:28:05;;;;;;;2.67;1.37;;;;;;;6.08;78.15;100429.06;10401804;28;20197;-80
2022/12/25 04:36:39;;;;;;;8.30;1.17;;;;;;;5.61;82.62;100402.06;10374935;28;20283;-80
2022/12/25 04:42:01;;;;;;;4.97;1.33;;;;;;;5.78;81.40;100384.75;10450640;28;20309;-80
2022/12/25 04:47:24;;;;;;;3.40;1.37;;;;;;;6.07;79.77;100388.22;10401662;28;20262;-80
2022/12/25 04:52:46;;;;;;;5.90;1.57;;;;;;;6.17;78.19;100392.81;10386536;28;20182;-81
2022/12/25 04:58:08;;;;;;;3.30;1.00;;;;;;;5.95;79.68;100390.66;10374115;28;20214;-80
2022/12/25 05:03:30;;;;;;;4.60;1.20;;;;;;;5.84;80.79;100373.19;10387849;28;20194;-80
2022/12/25 05:08:55;;;;;;;4.97;1.30;;;;;;;5.72;80.42;100364.44;10387311;28;20479;-79
2022/12/25 05:14:17;;;;;;;3.83;1.33;;;;;;;5.63;81.29;100362.63;10417959;28;20218;-79
2022/12/25 05:19:39;;;;;;;5.73;1.90;;;;;;;5.69;80.61;100364.19;10445877;28;20217;-80
2022/12/25 05:25:01;;;;;;;5.23;1.40;;;;;;;5.91;79.04;100362.44;10351642;28;20201;-80
2022/12/25 05:30:24;;;;;;;6.40;1.67;;;;;;;5.86;80.26;100353.31;10397362;28;20197;-80
2022/12/25 05:35:46;;;;;;;5.17;1.83;;;;;;;5.64;80.17;100350.28;10427501;28;20225;-80
2022/12/25 05:41:08;;;;;;;6.67;1.67;;;;;;;5.45;81.38;100353.91;10413558;28;20209;-80
2022/12/25 05:46:30;;;;;;;7.50;1.53;;;;;;;5.82;79.99;100346.66;10436082;28;20208;-81
2022/12/25 05:51:52;;;;;;;5.83;1.83;;;;;;;5.64;79.84;100344.69;10440326;28;20482;-80
2022/12/25 05:57:14;;;;;;;5.60;1.70;;;;;;;5.67;79.66;100338.50;10462186;28;20230;-80
2022/12/25 06:02:36;;;;;;;2.77;1.30;;;;;;;5.90;78.07;100331.97;10461900;28;20212;-81
2022/12/25 06:07:58;;;;;;;4.90;1.30;;;;;;;5.90;79.71;100331.97;10476009;28;20222;-81
2022/12/25 06:13:20;;;;;;;5.60;1.60;;;;;;;6.00;79.04;100342.19;10475843;28;20189;-81
2022/12/25 06:18:46;;;;;;;3.63;1.50;;;;;;;5.93;78.49;100336.97;10475567;28;20185;-80
2022/12/25 06:24:08;;;;;;;5.10;1.50;;;;;;;5.95;78.71;100334.69;10475523;28;20197;-80
2022/12/25 06:29:30;;;;;;;4.83;1.20;;;;;;;5.68;79.63;100323.38;10459263;28;20196;-79
2022/12/25 06:34:52;;;;;;;7.73;1.50;;;;;;;5.49;79.97;100321.44;10450773;28;20565;-80
2022/12/25 06:40:14;;;;;;;3.83;1.03;;;;;;;4.98;82.55;100303.69;10412840;28;20216;-80
2022/12/25 06:45:36;;;;;;;8.33;1.60;;;;;;;5.45;80.59;100297.19;10417547;28;20241;-80
2022/12/25 06:50:58;;;;;;;4.73;1.10;;;;;;;5.66;79.10;100278.13;10434210;28;20247;-79
2022/12/25 06:56:23;;;;;;;4.90;1.83;;;;;;;5.89;78.09;100280.00;10453121;28;20281;-81
2022/12/25 07:01:50;;;;;;;6.40;0.90;;;;;;;5.87;77.26;100282.25;10462909;28;20580;-81
2022/12/25 07:07:13;;;;;;;3.80;0.80;;;;;;;5.81;77.34;100287.09;10465548;28;20262;-81
2022/12/25 07:12:35;;;;;;;3.40;0.90;;;;;;;6.32;74.82;100277.78;10471175;28;20192;-82
2022/12/25 07:17:57;;;;;;;3.13;1.00;;;;;;;6.32;74.34;100284.22;10470354;28;20200;-83
2022/12/25 07:23:19;;;;;;;3.00;0.97;;;;;;;5.85;75.45;100273.34;10441379;28;20225;-81
2022/12/25 07:28:42;;;;;;;4.43;1.47;;;;;;;5.41;78.97;100246.63;10422122;28;20334;-81
2022/12/25 07:34:04;;;;;;;4.87;1.30;;;;;;;5.97;76.09;100233.69;10408184;28;20197;-81
2022/12/25 07:39:26;;;;;;;4.27;1.27;;;;;;;5.67;77.46;100240.63;10423002;28;20225;-80
2022/12/25 07:44:48;;;;;;;4.00;1.40;;;;;;;5.42;78.90;100242.72;10406100;28;20189;-87
2022/12/25 07:50:10;;;;;;;7.00;2.00;;;;;;;5.65;78.41;100235.34;10411320;28;20612;-80
2022/12/25 07:55:32;;;;;;;4.83;1.13;;;;;;;5.66;78.96;100237.00;10420827;28;20225;-81
2022/12/25 08:00:55;;;;;;;5.60;1.70;;;;;;;6.26;75.51;100234.28;10416500;28;20231;-81
2022/12/25 08:06:17;;;;;;;4.33;1.23;;;;;;;5.97;77.05;100209.34;10443004;28;20193;-80
2022/12/25 08:11:44;;;;;;;4.73;1.40;;;;;;;6.08;76.63;100208.00;10460324;28;20672;-81
2022/12/25 08:17:06;;;;;;;6.17;1.50;;;;;;;6.19;76.33;100198.28;10470394;28;20239;-81
2022/12/25 08:22:28;;;;;;;9.13;1.40;;;;;;;6.28;75.73;100209.59;10397876;28;20218;-81
2022/12/25 08:27:50;;;;;;;5.50;1.43;;;;;;;6.37;76.10;100218.09;10442710;28;20201;-81
2022/12/25 08:33:12;;;;;;;9.37;1.60;;;;;;;5.70;78.85;100220.44;10360464;28;20478;-79
2022/12/25 08:38:35;;;;;;;7.03;1.73;;;;;;;5.80;79.03;100221.09;10426124;28;20221;-80
2022/12/25 08:43:57;;;;;;;4.83;1.60;;;;;;;6.30;76.40;100222.13;10394431;28;20690;-80
2022/12/25 08:49:20;;;;;;;4.70;1.60;;;;;;;6.67;75.13;100211.88;10362630;28;20259;-81
2022/12/25 08:54:42;;;;;;;5.57;1.63;;;;;;;6.28;75.85;100190.81;10402628;28;20218;-80
2022/12/25 09:00:05;;;;;;;4.40;2.03;;;;;;;6.17;77.29;100213.72;10378333;28;20526;-80
2022/12/25 09:05:27;;;;;;;5.13;1.90;;;;;;;6.82;74.63;100250.78;10415756;28;20254;-80
2022/12/25 09:10:49;;;;;;;4.47;1.57;;;;;;;7.30;71.80;100253.09;10409480;28;20197;-81
2022/12/25 09:16:13;;;;;;;3.87;1.67;;;;;;;7.30;71.92;100236.28;10421445;28;20205;-81
2022/12/25 09:21:35;;;;;;;6.03;1.73;;;;;;;6.96;73.86;100217.97;10416083;28;20242;-89
2022/12/25 09:26:57;;;;;;;4.93;1.60;;;;;;;6.94;73.77;100197.84;10393555;28;20194;-82
2022/12/25 09:32:19;;;;;;;10.00;2.50;;;;;;;6.92;75.07;100185.31;10381649;28;20208;-88
2022/12/25 09:37:42;;;;;;;4.53;1.40;;;;;;;7.28;74.41;100183.34;10412623;28;20224;-81
2022/12/25 09:43:05;;;;;;;5.60;1.87;;;;;;;7.37;74.63;100197.41;10442961;28;20224;-81
2022/12/25 09:48:30;;;;;;;7.93;2.23;;;;;;;7.37;75.88;100214.22;10398524;28;20205;-81
2022/12/25 09:53:59;;;;;;;2.87;1.97;;;;;;;7.19;77.08;100213.25;10393771;28;20262;-82
2022/12/25 09:59:24;;;;;;;5.37;2.23;;;;;;;6.93;77.08;100215.00;10411289;28;20237;-89
2022/12/25 10:05:24;;;;;;;6.33;4.33;;;;;;;7.27;76.70;100237.75;10371768;28;20223;-82
2022/12/25 10:10:55;;;;;;;7.23;2.83;;;;;;;7.38;77.64;100249.53;10391185;28;20541;-81
2022/12/25 10:16:29;;;;;;;7.50;2.70;;;;;;;7.53;77.62;100229.53;10383150;28;20245;-80
2022/12/25 10:21:55;;;;;;;19.27;11.30;;;;;;;7.68;76.42;100201.16;10380904;28;20263;-82
2022/12/25 10:27:23;;;;;;;14.97;10.73;;;;;;;7.43;77.83;100193.34;10374808;28;20273;-81
2022/12/25 10:32:45;;;;;;;23.27;18.90;;;;;;;7.56;77.66;100181.28;10421929;28;20255;-81
2022/12/25 10:38:16;;;;;;;7.90;5.00;;;;;;;7.70;76.91;100162.41;10408082;28;20649;-81
2022/12/25 10:43:46;;;;;;;2.23;2.00;;;;;;;7.95;76.03;100134.78;10451455;28;20604;-82
2022/12/25 10:49:16;;;;;;;4.83;1.90;;;;;;;7.82;77.09;100144.13;10444049;28;20217;-84
2022/12/25 10:54:38;;;;;;;4.43;2.60;;;;;;;7.47;79.52;100135.47;10438432;28;20286;-82
2022/12/25 11:00:04;;;;;;;3.30;2.43;;;;;;;7.54;78.12;100147.06;10395783;28;20253;-80
2022/12/25 11:05:29;;;;;;;2.33;1.80;;;;;;;7.47;78.66;100146.69;10419553;28;20293;-80
2022/12/25 11:10:56;;;;;;;5.43;1.77;;;;;;;7.58;78.14;100125.66;10347756;28;20221;-81
2022/12/25 11:16:28;;;;;;;2.83;1.60;;;;;;;7.73;77.91;100111.22;10397817;28;20233;-82
2022/12/25 11:21:52;;;;;;;3.93;1.80;;;;;;;6.79;82.34;100119.78;10376393;28;20725;-80
2022/12/25 11:27:32;;;;;;;4.50;1.93;;;;;;;7.15;80.86;100100.13;10420758;28;20223;-81
2022/12/25 11:32:57;;;;;;;3.40;2.87;;;;;;;7.35;79.93;100094.00;10331386;28;20227;-81
2022/12/25 11:38:20;;;;;;;6.07;1.93;;;;;;;7.49;78.57;100077.09;10388193;28;20927;-81
2022/12/25 11:43:47;;;;;;;4.43;2.23;;;;;;;7.65;79.15;100060.72;10405565;28;20310;-83
2022/12/25 11:49:14;;;;;;;4.20;2.87;;;;;;;7.70;78.43;100052.16;10343295;28;20242;-82
2022/12/25 11:54:45;;;;;;;2.73;1.63;;;;;;;7.42;80.40;100036.63;10431778;28;20258;-82
2022/12/25 12:00:10;;;;;;;2.50;1.53;;;;;;;7.75;78.59;100014.69;10413393;28;20729;-81
2022/12/25 12:05:41;;;;;;;6.07;2.40;;;;;;;8.07;77.39;99991.88;10415611;27;20198;-83
2022/12/25 12:11:27;;;;;;;5.30;1.50;;;;;;;7.75;78.52;99995.06;10401813;28;20193;-82
2022/12/25 12:16:49;;;;;;;3.30;2.07;;;;;;;7.83;78.81;99983.88;10396927;28;20213;-84
2022/12/25 12:22:30;;;;;;;2.50;1.27;;;;;;;7.44;80.44;99973.50;10413965;28;20305;-81
2022/12/25 12:27:54;;;;;;;4.03;1.77;;;;;;;7.44;81.26;99970.69;10417969;28;20229;-94
2022/12/25 12:33:19;;;;;;;3.00;1.57;;;;;;;7.56;80.74;99956.91;10389367;28;20582;-81
2022/12/25 12:38:42;;;;;;;3.03;0.70;;;;;;;7.54;79.62;99947.97;10399550;28;21182;-81
2022/12/25 12:44:06;;;;;;;3.10;1.13;;;;;;;7.56;79.32;99954.09;10382471;28;20310;-80
2022/12/25 12:49:31;;;;;;;2.37;1.37;;;;;;;7.37;81.38;99959.91;10377727;28;20206;-81
2022/12/25 12:54:59;;;;;;;3.53;1.80;;;;;;;7.87;78.60;99953.19;10432529;28;20216;-81
2022/12/25 13:00:21;;;;;;;2.37;1.87;;;;;;;7.77;79.34;99934.69;10381162;28;20197;-80
2022/12/25 13:05:56;;;;;;;4.63;2.77;;;;;;;7.15;82.55;99937.56;10408952;28;20246;-80
2022/12/25 13:11:24;;;;;;;2.27;1.37;;;;;;;7.11;83.04;99921.72;10412978;28;20219;-86
2022/12/25 13:16:47;;;;;;;3.47;1.73;;;;;;;6.96;84.55;99912.56;10433024;28;20855;-81
2022/12/25 13:22:23;;;;;;;3.00;1.70;;;;;;;7.31;83.41;99905.16;10421064;28;20277;-92
2022/12/25 13:27:45;;;;;;;1.57;1.47;;;;;;;7.41;83.07;99901.22;10414225;28;20296;-81
2022/12/25 13:33:13;;;;;;;2.97;2.00;;;;;;;7.36;82.30;99892.94;10438089;28;20243;-80
2022/12/25 13:38:36;;;;;;;5.17;3.10;;;;;;;7.28;84.48;99882.56;10447458;28;20242;-82
2022/12/25 13:43:58;;;;;;;4.83;2.93;;;;;;;7.51;81.66;99875.69;10389790;28;20278;-81
2022/12/25 13:49:23;;;;;;;6.30;3.47;;;;;;;7.52;82.66;99868.09;10423544;28;20258;-82
2022/12/25 13:54:58;;;;;;;6.17;3.67;;;;;;;7.87;80.72;99881.06;10402555;28;20216;-81
2022/12/25 14:00:26;;;;;;;8.93;4.07;;;;;;;8.15;79.60;99870.34;10404716;28;20309;-93
2022/12/25 14:06:02;;;;;;;4.70;4.03;;;;;;;7.97;79.89;99882.69;10375586;28;20194;-92
2022/12/25 14:11:26;;;;;;;6.07;4.97;;;;;;;7.61;82.24;99883.81;10433057;28;20648;-80
2022/12/25 14:16:50;;;;;;;6.37;5.77;;;;;;;7.73;81.27;99869.16;10435981;28;20192;-81
2022/12/25 14:22:18;;;;;;;6.63;5.13;;;;;;;7.26;82.84;99859.63;10417860;28;20290;-81
2022/12/25 14:27:47;;;;;;;8.47;5.40;;;;;;;7.65;81.51;99868.00;10436327;28;20261;-81
2022/12/25 14:33:15;;;;;;;7.67;5.80;;;;;;;7.25;82.47;99857.97;10408461;28;20906;-80
2022/12/25 14:38:39;;;;;;;10.07;6.67;;;;;;;7.68;81.82;99856.13;10430948;28;20283;-81
2022/12/25 14:44:05;;;;;;;9.67;6.50;;;;;;;7.65;81.93;99851.16;10426571;28;20252;-79
2022/12/25 14:49:30;;;;;;;7.47;5.20;;;;;;;7.57;82.29;99857.59;10433711;28;20236;-81
2022/12/25 14:54:55;;;;;;;9.00;5.20;;;;;;;7.82;81.57;99855.16;10417231;28;20921;-93
2022/12/25 15:00:24;;;;;;;10.57;5.53;;;;;;;7.76;81.68;99848.88;10403716;28;20218;-83
2022/12/25 15:05:56;;;;;;;7.17;4.97;;;;;;;7.90;81.50;99851.50;10441715;28;20209;-83
2022/12/25 15:11:18;;;;;;;8.53;5.63;;;;;;;7.73;81.53;99852.31;10415545;28;20486;-88
2022/12/25 15:16:44;;;;;;;8.17;5.83;;;;;;;8.03;80.52;99856.97;10375038;28;20198;-82
2022/12/25 15:22:08;;;;;;;6.20;5.47;;;;;;;7.37;82.69;99852.56;10338887;28;20278;-82
2022/12/25 15:27:31;;;;;;;9.10;4.97;;;;;;;7.46;83.49;99847.78;10389389;28;20603;-92
2022/12/25 15:32:53;;;;;;;9.20;4.77;;;;;;;7.53;83.80;99836.94;10418199;28;20217;-82
2022/12/25 15:38:15;;;;;;;8.23;4.57;;;;;;;7.34;84.53;99817.59;10427116;28;20217;-82
2022/12/25 15:43:37;;;;;;;5.70;4.43;;;;;;;7.51;83.51;99805.59;10352724;28;20765;-83
2022/12/25 15:48:59;;;;;;;5.90;4.60;;;;;;;7.41;84.50;99808.72;10419835;28;20201;-84
2022/12/25 15:54:22;;;;;;;5.80;4.27;;;;;;;7.78;82.03;99798.03;10402754;28;20237;-83
2022/12/25 15:59:44;;;;;;;6.77;4.33;;;;;;;7.62;82.41;99792.91;10413441;28;20614;-82
2022/12/25 16:05:12;;;;;;;6.40;4.87;;;;;;;7.71;81.97;99799.34;10379506;28;20213;-82
2022/12/25 16:10:34;;;;;;;9.70;4.70;;;;;;;7.63;82.44;99797.38;10345154;28;20239;-80
2022/12/25 16:15:57;;;;;;;5.13;4.63;;;;;;;7.93;81.18;99800.34;10449706;28;20189;-83
2022/12/25 16:21:20;;;;;;;6.37;4.70;;;;;;;7.71;82.12;99799.34;10431985;28;20244;-86
2022/12/25 16:26:42;;;;;;;7.27;4.80;;;;;;;7.64;81.88;99792.59;10388131;28;20249;-82
2022/12/25 16:32:05;;;;;;;6.73;4.67;;;;;;;7.80;80.62;99784.50;10409224;28;20846;-82
2022/12/25 16:37:28;;;;;;;7.47;4.53;;;;;;;7.67;81.94;99773.13;10419947;28;20243;-82
2022/12/25 16:42:50;;;;;;;6.47;3.93;;;;;;;7.64;80.85;99768.19;10419135;28;20298;-81
2022/12/25 16:48:12;;;;;;;4.93;3.93;;;;;;;8.23;77.65;99764.81;10442522;28;20213;-83
2022/12/25 16:53:35;;;;;;;8.97;4.20;;;;;;;8.35;77.96;99770.56;10400636;28;20300;-82
2022/12/25 16:58:58;;;;;;;9.67;5.43;;;;;;;8.07;78.05;99778.56;10378026;28;20193;-81
2022/12/25 17:04:20;;;;;;;7.63;4.87;;;;;;;8.25;78.06;99779.31;10414527;28;20221;-82
2022/12/25 17:09:42;;;;;;;5.73;3.43;;;;;;;8.62;75.66;99766.50;10349566;28;20209;-83
2022/12/25 17:15:06;;;;;;;5.87;3.47;;;;;;;8.79;75.58;99755.22;10407243;28;20202;-82
2022/12/25 17:20:28;;;;;;;4.03;3.63;;;;;;;8.75;75.08;99754.25;10405408;28;20265;-83
2022/12/25 17:25:50;;;;;;;5.00;3.07;;;;;;;8.85;74.19;99755.88;10420633;28;20241;-82
2022/12/25 17:31:13;;;;;;;4.53;3.73;;;;;;;8.63;74.88;99756.94;10339435;28;20285;-85
2022/12/25 17:36:35;;;;;;;4.50;3.80;;;;;;;8.61;74.66;99768.50;10399824;28;20257;-81
2022/12/25 17:41:57;;;;;;;3.97;3.57;;;;;;;8.18;77.04;99763.00;10397947;28;20289;-82
2022/12/25 17:47:19;;;;;;;4.73;3.50;;;;;;;8.48;76.24;99754.69;10404302;28;20194;-87
2022/12/25 17:52:41;;;;;;;4.73;3.80;;;;;;;8.22;76.68;99764.00;10396725;28;20656;-82
2022/12/25 17:58:04;;;;;;;5.10;3.10;;;;;;;8.38;76.76;99762.28;10402802;28;20253;-81
2022/12/25 18:03:26;;;;;;;5.43;3.70;;;;;;;8.56;75.38;99779.09;10380697;28;20262;-82
2022/12/25 18:08:48;;;;;;;3.70;3.10;;;;;;;9.04;73.01;99765.50;10396119;28;20252;-81
2022/12/25 18:14:13;;;;;;;4.07;3.20;;;;;;;8.08;76.58;99777.41;10402704;28;20193;-81
2022/12/25 18:19:35;;;;;;;5.00;3.43;;;;;;;8.21;78.15;99773.56;10388980;28;20227;-82
2022/12/25 18:24:58;;;;;;;4.70;3.13;;;;;;;8.35;77.72;99768.59;10465190;28;20270;-82
2022/12/25 18:30:20;;;;;;;4.53;3.40;;;;;;;8.63;76.81;99773.78;10359910;28;20193;-81
2022/12/25 18:35:43;;;;;;;8.27;3.93;;;;;;;8.77;76.09;99780.03;10396920;28;20295;-80
2022/12/25 18:41:07;;;;;;;7.33;4.00;;;;;;;8.67;76.74;99780.41;10404974;28;20221;-81
2022/12/25 18:46:29;;;;;;;6.37;4.07;;;;;;;8.58;77.10;99776.78;10408063;28;20255;-81
2022/12/25 18:51:51;;;;;;;5.60;4.20;;;;;;;8.60;77.14;99778.09;10376016;28;20205;-80
2022/12/25 18:57:13;;;;;;;6.03;4.23;;;;;;;8.59;77.41;99767.19;10375448;28;20327;-82
2022/12/25 19:02:35;;;;;;;5.43;4.13;;;;;;;9.00;76.28;99761.75;10412861;28;20237;-82
2022/12/25 19:07:57;;;;;;;7.67;4.17;;;;;;;8.62;77.02;99772.13;10345614;28;20230;-82
2022/12/25 19:13:20;;;;;;;7.67;4.63;;;;;;;8.81;76.76;99769.75;10432038;28;20549;-82
2022/12/25 19:18:42;;;;;;;9.33;4.63;;;;;;;8.97;75.92;99773.66;10388493;28;20202;-82
2022/12/25 19:24:04;;;;;;;8.40;4.83;;;;;;;8.64;76.68;99786.69;10393147;28;20723;-82
2022/12/25 19:29:27;;;;;;;5.83;4.53;;;;;;;8.68;76.08;99782.88;10411242;28;20293;-83
2022/12/25 19:34:49;;;;;;;7.73;4.40;;;;;;;8.50;76.75;99786.03;10382075;28;20253;-82
2022/12/25 19:40:11;;;;;;;6.57;3.97;;;;;;;8.81;75.25;99788.59;10421346;28;20726;-82
2022/12/25 19:45:33;;;;;;;7.00;4.70;;;;;;;8.67;76.64;99788.81;10352783;28;20268;-80
2022/12/25 19:50:56;;;;;;;5.27;4.53;;;;;;;9.00;76.28;99789.84;10337116;28;20278;-81
2022/12/25 19:56:18;;;;;;;6.33;4.87;;;;;;;8.40;78.78;99804.91;10400012;28;20240;-81
2022/12/25 20:01:40;;;;;;;5.60;4.73;;;;;;;8.15;81.40;99816.19;10392776;28;20236;-81
2022/12/25 20:07:03;;;;;;;8.20;4.80;;;;;;;8.27;80.93;99828.38;10412020;28;20251;-81
2022/12/25 20:12:27;;;;;;;7.40;5.00;;;;;;;8.25;80.46;99813.84;10397004;28;20284;-81
2022/12/25 20:17:49;;;;;;;5.77;5.10;;;;;;;8.07;82.10;99817.84;10433111;28;20270;-81
2022/12/25 20:23:12;;;;;;;10.63;5.90;;;;;;;8.29;81.41;99820.44;10399565;28;20257;-81
2022/12/25 20:28:35;;;;;;;6.20;5.60;;;;;;;8.27;82.17;99811.53;10401002;28;20251;-81
2022/12/25 20:34:02;;;;;;;10.73;6.00;;;;;;;8.46;81.79;99816.78;10337152;28;20225;-81
2022/12/25 20:39:24;;;;;;;7.17;5.63;;;;;;;8.44;81.35;99833.16;10414238;28;20229;-81
2022/12/25 20:44:47;;;;;;;8.43;6.50;;;;;;;8.23;81.38;99843.44;10379497;28;20305;-80
2022/12/25 20:50:09;;;;;;;11.27;6.07;;;;;;;8.38;80.94;99837.28;10466551;28;20209;-82
2022/12/25 20:55:32;;;;;;;8.07;6.07;;;;;;;8.66;81.11;99834.94;10347772;28;20212;-80
2022/12/25 21:00:54;;;;;;;7.00;5.37;;;;;;;8.52;80.66;99834.28;10414087;28;20553;-81
2022/12/25 21:06:16;;;;;;;9.80;6.37;;;;;;;8.63;80.20;99821.56;10403803;28;20217;-82
2022/12/25 21:11:38;;;;;;;9.23;6.83;;;;;;;8.30;80.97;99835.31;10409234;28;20247;-82
2022/12/25 21:17:00;;;;;;;10.37;6.37;;;;;;;8.59;80.36;99835.44;10413177;28;20239;-81
2022/12/25 21:22:24;;;;;;;10.13;6.37;;;;;;;8.85;78.42;99824.13;10340369;28;20210;-90
2022/12/25 21:27:46;;;;;;;7.93;6.43;;;;;;;8.38;80.54;99835.28;10424884;28;20193;-82
2022/12/25 21:39:04;;;;;;;10.30;6.27;;;;;;;8.38;80.42;99829.69;10358569;28;20337;-83
2022/12/25 21:44:26;;;;;;;12.27;7.93;;;;;;;8.80;78.65;99829.94;10400582;28;20271;-82
2022/12/25 21:55:33;;;;;;;9.87;7.70;;;;;;;8.90;77.65;99823.94;10420913;28;20522;-82
2022/12/25 22:00:55;;;;;;;9.00;6.80;;;;;;;8.78;78.42;99815.38;10422113;28;20547;-82
2022/12/25 22:23:21;;;;;;;9.67;5.73;;;;;;;8.16;83.54;99888.00;10400782;28;20702;-82
2022/12/25 22:28:43;;;;;;;8.03;4.63;;;;;;;7.77;83.75;99860.91;10381306;28;20235;-81
2022/12/25 22:34:05;;;;;;;5.60;4.23;;;;;;;7.83;83.77;99890.47;10416954;28;20985;-81
2022/12/25 22:39:28;;;;;;;5.10;4.20;;;;;;;7.90;84.16;99893.59;10432335;28;20201;-82
2022/12/25 22:44:50;;;;;;;4.17;3.63;;;;;;;7.94;84.47;99872.16;10420995;28;20267;-82
2022/12/25 22:50:13;;;;;;;5.03;4.00;;;;;;;8.22;82.64;99884.72;10408271;28;20209;-83
2022/12/25 22:55:35;;;;;;;5.50;3.20;;;;;;;7.89;84.28;99889.16;10348701;28;20217;-83
2022/12/25 23:00:58;;;;;;;3.57;3.00;;;;;;;8.21;82.28;99891.47;10414820;28;20265;-84
2022/12/25 23:06:21;;;;;;;3.20;2.63;;;;;;;7.89;82.22;99886.34;10386907;28;20236;-83
2022/12/25 23:11:44;;;;;;;3.10;2.23;;;;;;;7.80;83.30;99891.13;10410598;28;20254;-82
2022/12/25 23:26:06;;;;;;;2.20;1.53;;;;;;;8.29;81.12;99889.81;10407550;28;20223;-84
2022/12/25 23:34:12;;;;;;;2.40;1.40;;;;;;;8.30;79.78;99906.34;10349523;28;20201;-81
2022/12/25 23:39:34;;;;;;;2.17;1.00;;;;;;;8.10;81.11;99906.97;10413613;28;20255;-82
2022/12/25 23:44:57;;;;;;;0.80;0.80;;;;;;;8.24;80.89;99896.41;10408785;28;20229;-81
2022/12/25 23:50:19;;;;;;;3.40;1.20;;;;;;;8.11;81.01;99897.41;10411477;28;20275;-82
2022/12/25 23:55:42;;;;;;;0.93;0.90;;;;;;;8.04;81.43;99891.47;10416363;28;20695;-82
